Time;durP1;ratioP1;P1;durP2;ratioP2;P2;SDS_P1;SDS_P2;PMS_P1;PMS_P2;Temp;Humidity;BMP_temperature;BMP_pressure;BME280_temperature;BME280_humidity;BME280_pressure;Samples;Min_cycle;Max_cycle;Signal;HPM_P1;HPM_P2
2023/04/05 00:01:37;;;;;;;;;;;;;;;16.19;42.65;102237.78;7258018;19;152244;-55
2023/04/05 00:04:06;;;;;;;;;;;;;;;16.18;42.29;102241.66;7260098;19;153430;-55
2023/04/05 00:06:33;;;;;;;;;;;;;;;16.14;42.72;102234.88;7254772;19;154847;-54
2023/04/05 00:09:02;;;;;;;;;;;;;;;16.16;42.30;102229.91;7257519;19;153363;-55
2023/04/05 00:11:30;;;;;;;;;;;;;;;16.15;42.64;102227.38;7258426;19;153352;-55
2023/04/05 00:13:59;;;;;;;;;;;;;;;16.13;42.75;102218.38;7257653;19;153145;-58
2023/04/05 00:16:26;;;;;;;;;;;;;;;16.15;42.36;102221.78;7255613;19;153946;-55
2023/04/05 00:18:55;;;;;;;;;;;;;;;16.13;42.42;102219.25;7257183;19;153227;-55
2023/04/05 00:21:22;;;;;;;;;;;;;;;16.14;42.64;102215.38;7262819;19;154965;-56
2023/04/05 00:23:50;;;;;;;;;;;;;;;16.12;42.54;102211.16;7258820;19;154641;-55
2023/04/05 00:26:17;;;;;;;;;;;;;;;16.12;42.36;102203.63;7257310;19;153090;-55
2023/04/05 00:28:44;;;;;;;;;;;;;;;16.12;42.52;102200.84;7251053;19;155186;-55
2023/04/05 00:31:11;;;;;;;;;;;;;;;16.12;42.69;102206.41;7255989;19;154752;-55
2023/04/05 00:33:38;;;;;;;;;;;;;;;16.12;42.70;102209.22;7254272;19;152586;-55
2023/04/05 00:36:08;;;;;;;;;;;;;;;16.12;42.35;102198.06;7263166;19;152877;-55
2023/04/05 00:38:35;;;;;;;;;;;;;;;16.12;42.43;102206.41;7256931;19;154758;-55
2023/04/05 00:41:02;;;;;;;;;;;;;;;16.13;42.20;102199.72;7256296;19;152888;-55
2023/04/05 00:43:29;;;;;;;;;;;;;;;16.08;42.32;102207.97;7258438;19;153425;-55
2023/04/05 00:45:56;;;;;;;;;;;;;;;16.08;42.50;102202.41;7250368;19;153784;-55
2023/04/05 00:48:24;;;;;;;;;;;;;;;16.09;42.49;102198.53;7250903;19;154710;-54
2023/04/05 00:50:51;;;;;;;;;;;;;;;16.10;42.17;102197.44;7258556;19;152369;-55
2023/04/05 00:53:18;;;;;;;;;;;;;;;16.11;42.24;102198.28;7255896;19;154516;-55
2023/04/05 00:55:46;;;;;;;;;;;;;;;16.10;42.33;102194.66;7249622;19;153141;-55
2023/04/05 00:58:17;;;;;;;;;;;;;;;16.10;42.12;102203.03;7257265;19;152967;-55
2023/04/05 01:00:46;;;;;;;;;;;;;;;16.11;42.45;102189.94;7258505;19;152910;-55
2023/04/05 01:03:13;;;;;;;;;;;;;;;16.09;42.57;102192.97;7255085;19;153284;-55
2023/04/05 01:05:46;;;;;;;;;;;;;;;16.08;42.52;102182.06;7262828;19;154090;-55
2023/04/05 01:08:16;;;;;;;;;;;;;;;16.08;42.16;102177.31;7253772;19;152882;-55
2023/04/05 01:10:46;;;;;;;;;;;;;;;16.06;42.35;102179.53;7254914;19;152595;-55
2023/04/05 01:13:15;;;;;;;;;;;;;;;16.06;42.25;102168.38;7254113;19;152505;-55
2023/04/05 01:15:42;;;;;;;;;;;;;;;16.06;42.42;102171.16;7252243;19;153491;-55
2023/04/05 01:18:10;;;;;;;;;;;;;;;16.06;42.12;102168.38;7253586;19;152982;-56
2023/04/05 01:20:39;;;;;;;;;;;;;;;16.03;42.36;102155.75;7254912;19;153646;-54
2023/04/05 01:23:10;;;;;;;;;;;;;;;16.03;42.38;102152.16;7255117;19;152785;-55
2023/04/05 01:25:37;;;;;;;;;;;;;;;16.02;42.44;102150.47;7260605;19;154137;-55
2023/04/05 01:28:07;;;;;;;;;;;;;;;16.03;42.57;102146.59;7252399;19;154092;-55
2023/04/05 01:30:36;;;;;;;;;;;;;;;16.04;42.38;102148.25;7253520;19;153666;-55
2023/04/05 01:33:13;;;;;;;;;;;;;;;16.05;42.44;102137.94;7254915;19;153041;-55
2023/04/05 01:35:43;;;;;;;;;;;;;;;16.04;42.54;102131.53;7250226;19;153207;-55
2023/04/05 01:38:14;;;;;;;;;;;;;;;16.02;42.44;102137.38;7253900;19;152468;-55
2023/04/05 01:40:41;;;;;;;;;;;;;;;16.03;42.26;102141.00;7254412;19;153701;-56
2023/04/05 01:43:11;;;;;;;;;;;;;;;16.01;42.53;102134.81;7254371;19;153047;-55
2023/04/05 01:45:38;;;;;;;;;;;;;;;16.03;42.38;102141.81;7244960;19;152444;-54
2023/04/05 01:48:05;;;;;;;;;;;;;;;16.02;42.41;102134.59;7255434;19;156157;-55
2023/04/05 01:50:32;;;;;;;;;;;;;;;16.03;42.38;102127.88;7254464;19;152165;-56
2023/04/05 01:52:59;;;;;;;;;;;;;;;16.03;42.13;102116.75;7256212;19;154181;-55
2023/04/05 01:55:26;;;;;;;;;;;;;;;16.05;42.03;102115.66;7245638;19;153441;-55
2023/04/05 01:57:54;;;;;;;;;;;;;;;16.02;42.19;102114.22;7247861;19;153092;-55
2023/04/05 02:00:21;;;;;;;;;;;;;;;16.03;42.11;102113.94;7254994;19;152975;-55
2023/04/05 02:02:53;;;;;;;;;;;;;;;16.03;42.08;102111.16;7250371;19;154379;-55
2023/04/05 02:05:20;;;;;;;;;;;;;;;15.99;42.31;102104.41;7252016;19;151843;-55
2023/04/05 02:07:47;;;;;;;;;;;;;;;16.01;41.97;102106.94;7252963;19;153874;-55
2023/04/05 02:10:14;;;;;;;;;;;;;;;15.98;42.12;102099.94;7258388;19;154298;-55
2023/04/05 02:12:41;;;;;;;;;;;;;;;16.02;42.35;102098.34;7251711;19;153816;-55
2023/04/05 02:15:08;;;;;;;;;;;;;;;15.99;42.04;102101.59;7247076;19;153326;-55
2023/04/05 02:17:38;;;;;;;;;;;;;;;16.00;42.08;102094.09;7248374;19;153788;-55
2023/04/05 02:20:06;;;;;;;;;;;;;;;15.99;42.09;102096.03;7254343;19;154065;-55
2023/04/05 02:22:33;;;;;;;;;;;;;;;15.99;42.12;102106.34;7254772;19;153545;-56
2023/04/05 02:25:00;;;;;;;;;;;;;;;15.98;42.17;102093.53;7251966;19;152215;-55
2023/04/05 02:27:27;;;;;;;;;;;;;;;15.98;42.21;102090.72;7252244;19;154820;-55
2023/04/05 02:29:56;;;;;;;;;;;;;;;15.97;41.78;102089.88;7252745;19;154022;-55
2023/04/05 02:32:23;;;;;;;;;;;;;;;15.98;42.16;102082.38;7256839;19;153786;-55
2023/04/05 02:34:51;;;;;;;;;;;;;;;15.95;41.99;102082.84;7251187;19;155006;-55
2023/04/05 02:37:18;;;;;;;;;;;;;;;15.95;42.00;102086.50;7249996;19;151949;-55
2023/04/05 02:39:45;;;;;;;;;;;;;;;15.95;42.16;102083.69;7250277;19;153804;-55
2023/04/05 02:42:12;;;;;;;;;;;;;;;15.96;42.23;102095.69;7252931;19;155933;-55
2023/04/05 02:44:39;;;;;;;;;;;;;;;15.97;42.14;102091.81;7248518;19;154628;-54
2023/04/05 02:47:06;;;;;;;;;;;;;;;15.95;42.02;102088.41;7245259;19;153595;-55
2023/04/05 02:49:33;;;;;;;;;;;;;;;15.94;41.72;102087.56;7249478;19;154186;-55
2023/04/05 02:51:59;;;;;;;;;;;;;;;15.93;41.76;102094.28;7253254;19;153697;-55
2023/04/05 02:54:26;;;;;;;;;;;;;;;15.94;41.72;102084.78;7257286;19;153117;-55
2023/04/05 02:56:56;;;;;;;;;;;;;;;15.95;42.07;102080.91;7249013;19;154537;-55
2023/04/05 02:59:23;;;;;;;;;;;;;;;15.92;42.06;102086.16;7253106;19;153581;-55
2023/04/05 03:01:50;;;;;;;;;;;;;;;15.90;41.70;102078.03;7251680;19;155077;-55
2023/04/05 03:04:17;;;;;;;;;;;;;;;15.89;41.73;102069.94;7247774;19;152492;-55
2023/04/05 03:06:47;;;;;;;;;;;;;;;15.89;41.87;102070.78;7246796;19;153567;-55
2023/04/05 03:09:14;;;;;;;;;;;;;;;15.89;41.92;102070.78;7250321;19;154081;-55
2023/04/05 03:11:41;;;;;;;;;;;;;;;15.89;41.95;102067.16;7255022;19;152942;-55
2023/04/05 03:14:08;;;;;;;;;;;;;;;15.90;41.70;102075.25;7252430;19;153690;-54
2023/04/05 03:16:34;;;;;;;;;;;;;;;15.89;42.21;102065.22;7253365;19;153984;-55
2023/04/05 03:19:05;;;;;;;;;;;;;;;15.91;41.87;102065.78;7245429;19;155427;-55
2023/04/05 03:21:32;;;;;;;;;;;;;;;15.90;41.89;102060.47;7259844;19;156145;-55
2023/04/05 03:23:59;;;;;;;;;;;;;;;15.91;42.09;102062.16;7257640;19;154120;-55
2023/04/05 03:26:26;;;;;;;;;;;;;;;15.88;41.92;102063.50;7261070;19;152921;-55
2023/04/05 03:28:53;;;;;;;;;;;;;;;15.87;42.00;102058.19;7259185;19;155723;-56
2023/04/05 03:31:20;;;;;;;;;;;;;;;15.88;41.69;102063.50;7260756;19;153687;-55
2023/04/05 03:33:47;;;;;;;;;;;;;;;15.88;41.95;102065.44;7253380;19;155765;-55
2023/04/05 03:36:15;;;;;;;;;;;;;;;15.90;42.11;102061.31;7262988;19;153997;-54
2023/04/05 03:38:43;;;;;;;;;;;;;;;15.86;41.85;102056.47;7257635;19;152777;-55
2023/04/05 03:41:10;;;;;;;;;;;;;;;15.87;41.79;102059.03;7258375;19;154655;-55
2023/04/05 03:43:37;;;;;;;;;;;;;;;15.87;41.83;102059.03;7255536;19;153408;-54
2023/04/05 03:46:03;;;;;;;;;;;;;;;15.88;41.92;102052.38;7253423;19;153157;-55
2023/04/05 03:48:30;;;;;;;;;;;;;;;15.88;41.77;102063.50;7255110;19;154942;-55
2023/04/05 03:50:57;;;;;;;;;;;;;;;15.86;41.64;102054.53;7261058;19;153500;-55
2023/04/05 03:53:25;;;;;;;;;;;;;;;15.85;42.06;102052.84;7259627;19;154300;-55
2023/04/05 03:55:53;;;;;;;;;;;;;;;15.86;41.94;102042.56;7253316;19;153828;-55
2023/04/05 03:58:19;;;;;;;;;;;;;;;15.85;42.05;102027.75;7263139;19;152924;-54
2023/04/05 04:00:49;;;;;;;;;;;;;;;15.86;41.89;102031.41;7255810;19;154418;-55
2023/04/05 04:03:16;;;;;;;;;;;;;;;15.85;41.85;102033.34;7258498;19;153132;-55
2023/04/05 04:05:43;;;;;;;;;;;;;;;15.84;41.82;102026.09;7251894;19;154189;-55
2023/04/05 04:08:11;;;;;;;;;;;;;;;15.82;41.84;102033.84;7253547;19;153997;-55
2023/04/05 04:10:38;;;;;;;;;;;;;;;15.84;42.06;102025.25;7260680;19;153089;-55
2023/04/05 04:13:05;;;;;;;;;;;;;;;15.84;42.06;102022.47;7253382;19;156052;-55
2023/04/05 04:15:32;;;;;;;;;;;;;;;15.80;41.63;102024.06;7254162;19;154565;-55
2023/04/05 04:18:01;;;;;;;;;;;;;;;15.81;41.80;102029.38;7255400;19;153472;-55
2023/04/05 04:20:28;;;;;;;;;;;;;;;15.83;41.71;102029.13;7262690;19;153655;-56
2023/04/05 04:22:57;;;;;;;;;;;;;;;15.79;41.97;102028.78;7256675;19;153732;-55
2023/04/05 04:25:25;;;;;;;;;;;;;;;15.80;41.98;102030.50;7253227;19;152978;-55
2023/04/05 04:27:53;;;;;;;;;;;;;;;15.83;41.86;102031.91;7252100;19;155163;-56
2023/04/05 04:30:21;;;;;;;;;;;;;;;15.81;42.04;102025.72;7257684;19;152943;-56
2023/04/05 04:35:27;;;;;;;;;;;;;;;15.78;42.00;102032.66;7250412;19;153586;-56
2023/04/05 04:37:56;;;;;;;;;;;;;;;15.79;41.86;102039.94;7255221;19;153409;-55
2023/04/05 04:43:13;;;;;;;;;;;;;;;15.84;41.92;102039.19;7261689;19;153772;-55
2023/04/05 04:45:40;;;;;;;;;;;;;;;15.79;42.05;102041.88;7248413;19;154357;-55
2023/04/05 04:48:07;;;;;;;;;;;;;;;15.79;41.90;102039.09;7246805;19;154249;-55
2023/04/05 04:50:34;;;;;;;;;;;;;;;15.78;41.72;102043.81;7254713;19;153205;-55
2023/04/05 04:53:01;;;;;;;;;;;;;;;15.80;41.64;102040.78;7256898;19;153739;-55
2023/04/05 04:55:29;;;;;;;;;;;;;;;15.77;41.88;102041.25;7251020;19;153285;-55
2023/04/05 04:57:56;;;;;;;;;;;;;;;15.77;42.00;102041.25;7251639;19;153486;-55
2023/04/05 05:00:23;;;;;;;;;;;;;;;15.77;41.96;102044.06;7255451;19;154409;-55
2023/04/05 05:02:51;;;;;;;;;;;;;;;15.77;42.16;102049.63;7250239;19;153315;-55
2023/04/05 05:05:21;;;;;;;;;;;;;;;15.76;42.06;102048.78;7258554;19;152886;-55
2023/04/05 05:07:48;;;;;;;;;;;;;;;15.78;41.79;102048.53;7254055;19;153443;-55
2023/04/05 05:10:15;;;;;;;;;;;;;;;15.75;42.25;102038.75;7255783;19;152188;-55
2023/04/05 05:12:42;;;;;;;;;;;;;;;15.76;42.16;102036.81;7257484;19;153062;-55
2023/04/05 05:15:09;;;;;;;;;;;;;;;15.75;41.93;102035.97;7249313;19;154085;-55
2023/04/05 05:17:38;;;;;;;;;;;;;;;15.75;42.25;102038.75;7249140;19;152208;-55
2023/04/05 05:20:09;;;;;;;;;;;;;;;15.76;42.12;102034.84;7254311;19;153564;-55
2023/04/05 05:22:37;;;;;;;;;;;;;;;15.73;42.00;102034.50;7253937;19;154556;-55
2023/04/05 05:25:04;;;;;;;;;;;;;;;15.74;41.94;102042.63;7261146;19;152041;-56
2023/04/05 05:27:33;;;;;;;;;;;;;;;15.75;42.31;102038.75;7251470;19;154980;-56
2023/04/05 05:30:00;;;;;;;;;;;;;;;15.76;41.82;102040.41;7254077;19;153604;-55
2023/04/05 05:32:26;;;;;;;;;;;;;;;15.75;41.90;102044.31;7250917;19;153705;-55
2023/04/05 05:34:54;;;;;;;;;;;;;;;15.75;41.95;102047.09;7249764;19;154522;-55
2023/04/05 05:37:28;;;;;;;;;;;;;;;15.73;42.25;102043.72;7250349;19;152867;-55
2023/04/05 05:39:55;;;;;;;;;;;;;;;15.74;42.16;102038.97;7252958;19;152784;-55
2023/04/05 05:42:22;;;;;;;;;;;;;;;15.73;42.16;102040.06;7254871;19;153868;-55
2023/04/05 05:44:49;;;;;;;;;;;;;;;15.71;41.96;102040.34;7251313;19;154790;-56
2023/04/05 05:47:16;;;;;;;;;;;;;;;15.70;42.21;102035.84;7255294;19;153524;-55
2023/04/05 05:49:43;;;;;;;;;;;;;;;15.70;42.04;102041.44;7249532;19;152655;-55
2023/04/05 05:52:09;;;;;;;;;;;;;;;15.71;42.16;102036.72;7257016;19;153187;-55
2023/04/05 05:54:36;;;;;;;;;;;;;;;15.73;42.14;102034.50;7251809;19;153738;-54
2023/04/05 05:57:03;;;;;;;;;;;;;;;15.73;41.89;102029.78;7251467;19;153410;-56
2023/04/05 05:59:30;;;;;;;;;;;;;;;15.75;42.00;102038.75;7252920;19;153821;-54
2023/04/05 06:01:57;;;;;;;;;;;;;;;15.75;41.81;102037.91;7250668;19;154830;-56
2023/04/05 06:04:25;;;;;;;;;;;;;;;15.72;42.11;102028.09;7248771;19;152498;-56
2023/04/05 06:06:53;;;;;;;;;;;;;;;15.70;42.00;102029.44;7252401;19;153648;-56
2023/04/05 06:09:22;;;;;;;;;;;;;;;15.72;42.26;102027.22;7260291;19;155056;-55
2023/04/05 06:11:53;;;;;;;;;;;;;;;15.72;42.14;102035.59;7255609;19;153436;-56
2023/04/05 06:14:23;;;;;;;;;;;;;;;15.71;42.10;102028.34;7247987;19;153453;-56
2023/04/05 06:16:50;;;;;;;;;;;;;;;15.69;41.88;102034.16;7248825;19;154169;-55
2023/04/05 06:19:17;;;;;;;;;;;;;;;15.70;41.87;102026.66;7251581;19;153472;-56
2023/04/05 06:21:46;;;;;;;;;;;;;;;15.67;42.43;102029.94;7255298;19;153458;-55
2023/04/05 06:24:13;;;;;;;;;;;;;;;15.69;41.96;102016.59;7251528;19;152604;-55
2023/04/05 06:26:40;;;;;;;;;;;;;;;15.68;42.45;102023.25;7249834;19;155525;-56
2023/04/05 06:29:07;;;;;;;;;;;;;;;15.69;42.16;102020.22;7251756;19;153878;-56
2023/04/05 06:31:34;;;;;;;;;;;;;;;15.67;42.31;102024.38;7259491;19;153116;-56
2023/04/05 06:34:01;;;;;;;;;;;;;;;15.67;42.13;102018.81;7247041;19;155966;-56
2023/04/05 06:36:30;;;;;;;;;;;;;;;15.68;42.10;102020.47;7246629;19;152312;-56
2023/04/05 06:38:58;;;;;;;;;;;;;;;15.66;42.11;102020.75;7250950;19;153093;-55
2023/04/05 06:41:26;;;;;;;;;;;;;;;15.67;42.17;102016.03;7251130;19;153296;-55
2023/04/05 06:43:53;;;;;;;;;;;;;;;15.68;42.38;102021.31;7251932;19;152765;-55
2023/04/05 06:46:20;;;;;;;;;;;;;;;15.67;42.39;102016.84;7248011;19;155748;-56
2023/04/05 06:48:48;;;;;;;;;;;;;;;15.68;42.18;102000.97;7247509;19;154625;-55
2023/04/05 06:51:15;;;;;;;;;;;;;;;15.65;42.52;102010.69;7248220;19;154105;-55
2023/04/05 06:53:42;;;;;;;;;;;;;;;15.66;42.54;102009.59;7256980;19;154434;-55
2023/04/05 06:56:10;;;;;;;;;;;;;;;15.68;42.52;102004.59;7251825;19;153876;-56
2023/04/05 06:58:37;;;;;;;;;;;;;;;15.71;42.29;102008.84;7257273;19;153263;-55
2023/04/05 07:01:04;;;;;;;;;;;;;;;15.68;42.08;102004.59;7256933;19;153421;-55
2023/04/05 07:03:32;;;;;;;;;;;;;;;15.72;42.27;102002.16;7256444;19;153635;-56
2023/04/05 07:05:59;;;;;;;;;;;;;;;15.69;42.27;102009.09;7251082;19;154425;-56
2023/04/05 07:08:27;;;;;;;;;;;;;;;15.71;42.26;102000.50;7259260;19;155620;-56
2023/04/05 07:10:54;;;;;;;;;;;;;;;15.67;42.37;102005.69;7255413;19;152757;-56
2023/04/05 07:13:22;;;;;;;;;;;;;;;15.71;42.18;102004.13;7257145;19;153588;-56
2023/04/05 07:15:50;;;;;;;;;;;;;;;15.70;42.28;102002.44;7259921;19;154350;-56
2023/04/05 07:18:18;;;;;;;;;;;;;;;15.70;42.27;101996.00;7257339;19;153563;-55
2023/04/05 07:20:46;;;;;;;;;;;;;;;15.71;42.27;101992.13;7256708;19;154883;-56
2023/04/05 07:23:13;;;;;;;;;;;;;;;15.71;42.19;101997.72;7258535;19;151905;-55
2023/04/05 07:25:40;;;;;;;;;;;;;;;15.71;42.34;101997.72;7257379;19;153791;-56
2023/04/05 07:28:07;;;;;;;;;;;;;;;15.68;42.27;101999.03;7255692;19;152676;-56
2023/04/05 07:30:35;;;;;;;;;;;;;;;15.70;42.13;102004.38;7258125;19;153135;-55
2023/04/05 07:33:02;;;;;;;;;;;;;;;15.69;42.10;101992.38;7255448;19;153567;-55
2023/04/05 07:35:30;;;;;;;;;;;;;;;15.70;42.08;101991.28;7260813;19;155711;-56
2023/04/05 07:37:57;;;;;;;;;;;;;;;15.69;42.54;101997.09;7258373;19;153540;-56
2023/04/05 07:40:24;;;;;;;;;;;;;;;15.71;42.17;101997.72;7257046;19;154332;-56
2023/04/05 07:42:51;;;;;;;;;;;;;;;15.68;42.21;102000.97;7259468;19;153983;-55
2023/04/05 07:45:18;;;;;;;;;;;;;;;15.67;42.50;101993.72;7254381;19;153325;-55
2023/04/05 07:47:45;;;;;;;;;;;;;;;15.66;42.47;101990.09;7250758;19;153599;-55
2023/04/05 07:50:18;;;;;;;;;;;;;;;15.66;42.37;101987.31;7254537;19;152761;-56
2023/04/05 07:52:50;;;;;;;;;;;;;;;15.68;42.39;101993.47;7257688;19;153925;-55
2023/04/05 07:55:18;;;;;;;;;;;;;;;15.68;42.52;101989.81;7255062;19;154240;-55
2023/04/05 07:57:45;;;;;;;;;;;;;;;15.68;42.35;101981.47;7263535;19;153445;-56
2023/04/05 08:00:14;;;;;;;;;;;;;;;15.68;42.28;101990.69;7254112;19;154197;-56
2023/04/05 08:02:47;;;;;;;;;;;;;;;15.71;42.34;101975.41;7255343;19;153156;-56
2023/04/05 08:05:15;;;;;;;;;;;;;;;15.70;42.59;101987.66;7253466;19;153804;-56
2023/04/05 08:07:42;;;;;;;;;;;;;;;15.69;42.50;101975.66;7252210;19;154883;-55
2023/04/05 08:10:10;;;;;;;;;;;;;;;15.70;42.43;101980.13;7258568;19;152079;-56
2023/04/05 08:12:41;;;;;;;;;;;;;;;15.69;42.60;101972.03;7257334;19;154984;-56
2023/04/05 08:15:09;;;;;;;;;;;;;;;15.69;42.28;101983.16;7253317;19;153349;-56
2023/04/05 08:17:35;;;;;;;;;;;;;;;15.70;42.45;101976.50;7251182;19;152650;-56
2023/04/05 08:20:03;;;;;;;;;;;;;;;15.71;42.39;101976.25;7266061;19;154370;-55
2023/04/05 08:22:32;;;;;;;;;;;;;;;15.71;42.31;101976.25;7256898;19;152503;-55
2023/04/05 08:25:00;;;;;;;;;;;;;;;15.70;42.41;101976.50;7254718;19;154009;-56
2023/04/05 08:27:27;;;;;;;;;;;;;;;15.72;42.23;101974.31;7254405;19;153840;-55
2023/04/05 08:29:55;;;;;;;;;;;;;;;15.70;42.57;101979.28;7256571;19;152799;-56
2023/04/05 08:32:22;;;;;;;;;;;;;;;15.72;42.38;101974.31;7257147;19;153335;-56
2023/04/05 08:34:49;;;;;;;;;;;;;;;15.71;42.59;101976.25;7251957;19;156031;-56
2023/04/05 08:37:16;;;;;;;;;;;;;;;15.68;42.21;101968.38;7253147;19;152664;-55
2023/04/05 08:39:43;;;;;;;;;;;;;;;15.70;42.53;101977.34;7257768;19;153779;-56
2023/04/05 08:42:16;;;;;;;;;;;;;;;15.72;42.52;101979.88;7264310;19;155060;-56
2023/04/05 08:44:43;;;;;;;;;;;;;;;15.71;42.26;101979.06;7254215;19;153746;-56
2023/04/05 08:47:20;;;;;;;;;;;;;;;15.71;42.47;101975.41;7251870;19;154107;-56
2023/04/05 08:49:48;;;;;;;;;;;;;;;15.73;42.41;101974.06;7252855;19;154092;-56
2023/04/05 08:52:15;;;;;;;;;;;;;;;15.73;42.68;101978.78;7253759;19;153649;-56
2023/04/05 08:54:42;;;;;;;;;;;;;;;15.72;42.36;101977.09;7254176;19;154649;-56
2023/04/05 08:57:10;;;;;;;;;;;;;;;15.75;42.46;101965.47;7252967;19;154174;-56
2023/04/05 08:59:39;;;;;;;;;;;;;;;15.74;42.58;101970.19;7255193;19;152772;-55
2023/04/05 09:02:13;;;;;;;;;;;;;;;15.71;42.34;101959.56;7255431;19;154174;-55
2023/04/05 09:04:43;;;;;;;;;;;;;;;15.74;42.22;101970.19;7257369;19;152980;-55
2023/04/05 09:07:12;;;;;;;;;;;;;;;15.75;42.37;101963.53;7251166;19;154238;-56
2023/04/05 09:09:42;;;;;;;;;;;;;;;15.74;42.58;101959.03;7257366;19;153078;-56
2023/04/05 09:12:09;;;;;;;;;;;;;;;15.70;42.56;101969.00;7253674;19;154598;-56
2023/04/05 09:14:38;;;;;;;;;;;;;;;15.77;42.51;101957.69;7252676;19;154252;-56
2023/04/05 09:17:05;;;;;;;;;;;;;;;15.77;42.63;101954.88;7250667;19;152726;-55
2023/04/05 09:19:32;;;;;;;;;;;;;;;15.73;42.55;101953.72;7251098;19;155660;-56
2023/04/05 09:22:01;;;;;;;;;;;;;;;15.75;42.39;101943.16;7257704;19;153436;-56
2023/04/05 09:24:29;;;;;;;;;;;;;;;15.75;42.31;101940.38;7252787;19;153918;-56
2023/04/05 09:27:06;;;;;;;;;;;;;;;15.76;42.53;101937.31;7257058;19;154119;-56
2023/04/05 09:29:33;;;;;;;;;;;;;;;15.74;42.66;101942.31;7255318;19;153332;-56
2023/04/05 09:32:02;;;;;;;;;;;;;;;15.76;42.30;101939.28;7253504;19;154110;-55
2023/04/05 09:34:32;;;;;;;;;;;;;;;15.73;42.62;101923.06;7250775;19;154273;-55
2023/04/05 09:37:00;;;;;;;;;;;;;;;15.75;42.68;101923.66;7253081;19;153860;-56
2023/04/05 09:39:30;;;;;;;;;;;;;;;15.75;42.72;101929.25;7253256;19;153344;-56
2023/04/05 09:42:08;;;;;;;;;;;;;;;15.77;42.43;101927.03;7254363;19;154781;-56
2023/04/05 09:44:44;;;;;;;;;;;;;;;15.76;42.55;101917.81;7254160;19;153192;-55
2023/04/05 09:47:16;;;;;;;;;;;;;;;15.77;42.53;101922.31;7254403;19;153341;-56
2023/04/05 09:49:43;;;;;;;;;;;;;;;15.76;42.49;101917.00;7251708;19;152542;-56
2023/04/05 09:52:20;;;;;;;;;;;;;;;15.79;42.50;101914.56;7253189;19;154497;-56
2023/04/05 09:54:47;;;;;;;;;;;;;;;15.79;42.59;101922.06;7249755;19;154205;-55
2023/04/05 09:57:15;;;;;;;;;;;;;;;15.78;42.79;101915.66;7253089;19;155244;-56
2023/04/05 09:59:43;;;;;;;;;;;;;;;15.83;42.34;101917.66;7252659;19;154103;-56
2023/04/05 10:02:10;;;;;;;;;;;;;;;15.81;42.38;101905.91;7250622;19;154816;-55
2023/04/05 10:04:40;;;;;;;;;;;;;;;15.82;42.69;101907.63;7249865;19;153071;-56
2023/04/05 10:07:10;;;;;;;;;;;;;;;15.81;42.42;101909.56;7255205;19;155080;-56
2023/04/05 10:09:38;;;;;;;;;;;;;;;15.81;42.35;101909.56;7259651;19;153450;-56
2023/04/05 10:12:08;;;;;;;;;;;;;;;15.82;42.59;101905.69;7251851;19;154141;-55
2023/04/05 10:14:36;;;;;;;;;;;;;;;15.85;42.66;101902.38;7250499;19;154842;-56
2023/04/05 10:17:07;;;;;;;;;;;;;;;15.84;42.38;101905.44;7249703;19;153241;-56
2023/04/05 10:19:43;;;;;;;;;;;;;;;15.84;42.64;101899.88;7249955;19;154004;-56
2023/04/05 10:22:13;;;;;;;;;;;;;;;15.84;42.65;101903.50;7251347;19;154275;-56
2023/04/05 10:24:48;;;;;;;;;;;;;;;15.87;42.48;101908.56;7252922;19;153443;-56
2023/04/05 10:27:17;;;;;;;;;;;;;;;15.86;42.28;101901.28;7249941;19;153808;-56
2023/04/05 10:29:50;;;;;;;;;;;;;;;15.91;42.33;101903.31;7252567;19;154042;-56
2023/04/05 10:32:22;;;;;;;;;;;;;;;15.89;42.50;101895.22;7266651;19;153546;-55
2023/04/05 10:34:56;;;;;;;;;;;;;;;15.93;42.51;101892.75;7257109;19;153761;-56
2023/04/05 10:37:30;;;;;;;;;;;;;;;15.95;42.20;101896.13;7258016;19;154442;-55
2023/04/05 10:40:01;;;;;;;;;;;;;;;15.96;42.62;101890.31;7261684;19;153662;-55
2023/04/05 10:42:35;;;;;;;;;;;;;;;16.02;42.37;101888.44;7259180;19;154035;-54
2023/04/05 10:45:03;;;;;;;;;;;;;;;16.05;42.09;101887.94;7260207;19;151836;-55
2023/04/05 10:47:34;;;;;;;;;;;;;;;16.06;42.53;101884.06;7252808;19;152360;-55
2023/04/05 10:50:03;;;;;;;;;;;;;;;16.09;42.47;101880.75;7258372;19;154476;-55
2023/04/05 10:52:32;;;;;;;;;;;;;;;16.12;42.33;101877.47;7260279;19;152673;-56
2023/04/05 10:55:01;;;;;;;;;;;;;;;16.15;42.17;101876.09;7260955;19;153349;-55
2023/04/05 10:57:29;;;;;;;;;;;;;;;16.18;42.34;101875.56;7253494;19;153170;-55
2023/04/05 10:59:58;;;;;;;;;;;;;;;16.19;42.19;101871.69;7257997;19;154547;-55
2023/04/05 11:02:27;;;;;;;;;;;;;;;16.19;42.05;101871.69;7255201;19;154670;-55
2023/04/05 11:04:56;;;;;;;;;;;;;;;16.20;42.22;101874.22;7251793;19;154336;-55
2023/04/05 11:07:23;;;;;;;;;;;;;;;16.24;42.11;101874.56;7256442;19;153268;-54
2023/04/05 11:09:51;;;;;;;;;;;;;;;16.23;41.98;101865.34;7258947;19;154179;-54
2023/04/05 11:12:18;;;;;;;;;;;;;;;16.24;41.95;101868.97;7259712;19;153409;-55
2023/04/05 11:14:46;;;;;;;;;;;;;;;16.25;41.91;101873.47;7257241;19;154220;-55
2023/04/05 11:17:22;;;;;;;;;;;;;;;16.26;42.19;101864.00;7261930;19;154172;-55
2023/04/05 11:19:51;;;;;;;;;;;;;;;16.26;41.90;101861.22;7255352;19;153234;-55
2023/04/05 11:22:27;;;;;;;;;;;;;;;16.28;42.13;101851.47;7256164;19;153848;-55
2023/04/05 11:24:56;;;;;;;;;;;;;;;16.31;42.06;101850.94;7255276;19;152113;-55
2023/04/05 11:27:24;;;;;;;;;;;;;;;16.33;42.07;101851.56;7255106;19;154290;-55
2023/04/05 11:29:53;;;;;;;;;;;;;;;16.33;41.61;101853.50;7257059;19;154447;-55
2023/04/05 11:32:20;;;;;;;;;;;;;;;16.34;42.09;101844.88;7257228;19;152888;-55
2023/04/05 11:34:58;;;;;;;;;;;;;;;16.34;41.78;101853.25;7257629;19;153609;-55
2023/04/05 11:37:36;;;;;;;;;;;;;;;16.36;41.93;101844.59;7257272;19;153966;-55
2023/04/05 11:40:12;;;;;;;;;;;;;;;16.40;42.04;101840.19;7264024;19;153456;-54
2023/04/05 11:42:40;;;;;;;;;;;;;;;16.35;41.67;101837.34;7256844;19;154056;-55
2023/04/05 11:45:07;;;;;;;;;;;;;;;16.35;41.95;101831.78;7254953;19;152533;-55
2023/04/05 11:47:35;;;;;;;;;;;;;;;16.34;42.05;101830.09;7251460;19;153532;-55
2023/04/05 11:50:08;;;;;;;;;;;;;;;16.36;41.99;101820.34;7256032;19;155432;-55
2023/04/05 11:52:35;;;;;;;;;;;;;;;16.40;41.86;101813.16;7259084;19;152829;-55
2023/04/05 11:55:03;;;;;;;;;;;;;;;16.40;41.82;101815.94;7250690;19;155508;-55
2023/04/05 11:57:32;;;;;;;;;;;;;;;16.39;41.74;101813.41;7256359;19;154428;-55
2023/04/05 11:59:59;;;;;;;;;;;;;;;16.40;41.80;101815.09;7265464;19;152912;-55
2023/04/05 12:02:31;;;;;;;;;;;;;;;16.37;41.67;101812.81;7255657;19;154094;-55
2023/04/05 12:05:00;;;;;;;;;;;;;;;16.39;41.66;101816.22;7257630;19;153663;-55
2023/04/05 12:07:31;;;;;;;;;;;;;;;16.36;41.60;101811.97;7255377;19;154877;-55
2023/04/05 12:09:59;;;;;;;;;;;;;;;16.40;41.89;101815.94;7255158;19;154374;-55
2023/04/05 12:12:26;;;;;;;;;;;;;;;16.42;41.80;101810.94;7257281;19;153765;-55
2023/04/05 12:15:03;;;;;;;;;;;;;;;16.42;41.81;101805.38;7256042;19;155250;-55
2023/04/05 12:17:38;;;;;;;;;;;;;;;16.49;41.28;101807.13;7251391;19;156854;-54
2023/04/05 12:20:05;;;;;;;;;;;;;;;16.50;41.21;101801.28;7256591;19;153118;-54
2023/04/05 12:22:33;;;;;;;;;;;;;;;16.50;41.40;101795.69;7264568;19;153583;-56
2023/04/05 12:25:00;;;;;;;;;;;;;;;16.48;41.33;101799.88;7253144;19;152260;-55
2023/04/05 12:27:28;;;;;;;;;;;;;;;16.48;41.31;101797.91;7257054;19;155701;-56
2023/04/05 12:30:04;;;;;;;;;;;;;;;16.46;41.44;101795.38;7256276;19;153953;-56
2023/04/05 12:32:35;;;;;;;;;;;;;;;16.51;41.25;101796.53;7257112;19;151898;-56
2023/04/05 12:35:10;;;;;;;;;;;;;;;16.50;41.08;101787.31;7254356;19;154659;-56
2023/04/05 12:37:39;;;;;;;;;;;;;;;16.47;41.50;101799.00;7254907;19;153638;-56
2023/04/05 12:40:07;;;;;;;;;;;;;;;16.50;41.06;101790.13;7257047;19;153866;-56